Time;durP1;ratioP1;P1;durP2;ratioP2;P2;SDS_P1;SDS_P2;PMS_P1;PMS_P2;Temp;Humidity;BMP_temperature;BMP_pressure;BME280_temperature;BME280_humidity;BME280_pressure;Samples;Min_cycle;Max_cycle;Signal;HPM_P1;HPM_P2
2023/05/15 00:02:07;;;;;;;4.63;3.92;;;15.00;94.40;;;;;;5034612;28;20067;-70
2023/05/15 00:04:35;;;;;;;6.82;4.07;;;15.00;94.30;;;;;;5012142;28;20180;-70
2023/05/15 00:07:02;;;;;;;5.32;4.00;;;15.00;94.30;;;;;;5048476;28;20040;-70
2023/05/15 00:09:30;;;;;;;6.93;3.78;;;15.00;94.40;;;;;;5048707;28;20470;-68
2023/05/15 00:11:57;;;;;;;5.10;3.80;;;15.20;94.50;;;;;;5048768;28;20196;-70
2023/05/15 00:14:25;;;;;;;9.02;4.13;;;15.20;94.10;;;;;;5031073;28;20033;-69
2023/05/15 00:16:53;;;;;;;4.07;3.63;;;15.20;94.10;;;;;;5028756;28;20036;-70
2023/05/15 00:19:20;;;;;;;8.52;3.80;;;15.20;94.30;;;;;;5052401;28;20761;-68
2023/05/15 00:21:48;;;;;;;4.53;3.65;;;15.30;94.30;;;;;;5050644;28;20041;-68
2023/05/15 00:24:15;;;;;;;6.72;3.35;;;15.30;94.20;;;;;;5048185;28;20055;-68
2023/05/15 00:26:42;;;;;;;6.05;3.35;;;15.30;94.20;;;;;;5045079;28;20477;-67
2023/05/15 00:29:10;;;;;;;10.05;3.33;;;15.40;94.10;;;;;;5051693;28;20084;-68
2023/05/15 00:31:37;;;;;;;9.05;4.10;;;15.50;94.10;;;;;;5068145;28;20118;-67
2023/05/15 00:34:05;;;;;;;7.40;3.67;;;15.60;94.10;;;;;;5053692;28;20112;-66
2023/05/15 00:36:32;;;;;;;5.55;3.70;;;15.70;94.10;;;;;;5034919;28;20044;-67
2023/05/15 00:39:00;;;;;;;8.70;3.30;;;15.70;94.00;;;;;;5043624;28;20032;-68
2023/05/15 00:41:27;;;;;;;6.20;3.25;;;15.70;94.00;;;;;;5041044;28;20040;-68
2023/05/15 00:43:55;;;;;;;5.20;2.90;;;15.80;93.80;;;;;;5025809;28;20053;-69
2023/05/15 00:46:22;;;;;;;5.00;2.28;;;15.80;93.70;;;;;;5032555;28;20040;-68
2023/05/15 00:48:50;;;;;;;5.07;2.53;;;15.80;93.70;;;;;;5008747;28;20376;-67
2023/05/15 00:51:18;;;;;;;5.18;2.90;;;15.80;93.70;;;;;;5020648;28;20387;-68
2023/05/15 00:53:45;;;;;;;4.55;2.50;;;15.80;93.70;;;;;;5034006;28;20043;-68
2023/05/15 00:56:12;;;;;;;7.65;2.97;;;16.00;93.60;;;;;;5034494;28;20372;-68
2023/05/15 00:58:40;;;;;;;4.53;2.60;;;16.00;93.50;;;;;;5051259;28;20447;-68
2023/05/15 01:01:07;;;;;;;4.03;2.30;;;16.10;93.40;;;;;;5034023;28;20075;-68
2023/05/15 01:03:35;;;;;;;5.80;2.28;;;16.10;93.20;;;;;;5051807;28;20033;-68
2023/05/15 01:06:02;;;;;;;6.43;2.67;;;16.20;93.20;;;;;;5034387;28;20057;-68
2023/05/15 01:08:48;;;;;;;7.07;2.10;;;16.20;93.20;;;;;;5051736;28;20403;-68
2023/05/15 01:11:16;;;;;;;5.45;2.00;;;16.30;93.20;;;;;;5018121;28;20091;-68
2023/05/15 01:13:44;;;;;;;3.95;2.28;;;16.40;93.20;;;;;;5017833;28;20060;-68
2023/05/15 01:16:11;;;;;;;5.80;2.20;;;16.40;93.20;;;;;;5051390;28;20033;-68
2023/05/15 01:18:39;;;;;;;7.25;2.30;;;16.50;93.10;;;;;;5051582;28;20527;-68
2023/05/15 01:21:24;;;;;;;6.35;2.00;;;16.60;93.20;;;;;;5051535;28;20033;-68
2023/05/15 01:24:09;;;;;;;4.00;2.13;;;16.60;93.00;;;;;;5050600;28;20410;-68
2023/05/15 01:27:13;;;;;;;4.07;1.80;;;16.70;92.70;;;;;;5051712;28;20036;-68
2023/05/15 01:29:53;;;;;;;4.63;2.33;;;16.70;92.50;;;;;;5051028;28;20043;-68
2023/05/15 01:32:52;;;;;;;6.18;2.17;;;16.70;92.50;;;;;;5051390;28;20091;-68
2023/05/15 01:35:41;;;;;;;5.05;2.72;;;16.80;92.20;;;;;;5046132;28;20043;-68
2023/05/15 01:38:36;;;;;;;11.15;3.83;;;16.90;92.20;;;;;;5034769;28;20041;-68
2023/05/15 03:47:27;;;;;;;4.82;1.70;;;18.10;87.10;;;;;;5044152;28;20047;-67
2023/05/15 03:49:55;;;;;;;13.18;1.63;;;18.00;87.40;;;;;;5041840;28;20040;-67
2023/05/15 03:52:22;;;;;;;7.03;1.10;;;17.90;87.40;;;;;;5053047;28;20034;-68
2023/05/15 03:54:50;;;;;;;9.07;1.85;;;17.80;87.50;;;;;;5053658;28;20052;-67
2023/05/15 03:57:17;;;;;;;11.93;2.45;;;17.80;87.90;;;;;;5052995;28;20124;-67
2023/05/15 03:59:45;;;;;;;5.15;1.42;;;17.70;87.70;;;;;;5047532;28;20595;-67
2023/05/15 04:02:12;;;;;;;8.98;1.38;;;17.80;88.10;;;;;;5060989;28;20175;-67
2023/05/15 04:04:40;;;;;;;17.42;2.42;;;17.80;88.40;;;;;;5043483;28;20036;-67
2023/05/15 04:07:07;;;;;;;49.65;8.13;;;17.70;88.50;;;;;;5061259;28;20491;-67
2023/05/15 04:09:35;;;;;;;14.18;2.78;;;17.70;88.70;;;;;;5042407;28;20098;-67
2023/05/15 04:12:02;;;;;;;7.22;1.98;;;17.70;89.00;;;;;;5052164;28;20506;-67
2023/05/15 04:14:29;;;;;;;6.72;1.63;;;17.60;89.80;;;;;;5052263;28;20033;-67
2023/05/15 04:16:57;;;;;;;3.20;1.20;;;17.50;89.80;;;;;;5052876;28;20037;-67
2023/05/15 04:19:24;;;;;;;4.13;1.30;;;17.50;90.00;;;;;;5038627;28;20046;-67
2023/05/15 04:21:52;;;;;;;5.50;1.27;;;17.50;89.80;;;;;;5052153;28;20091;-67
2023/05/15 04:24:19;;;;;;;6.85;1.10;;;17.50;89.90;;;;;;5052572;28;20736;-69
2023/05/15 04:26:47;;;;;;;5.13;1.10;;;17.50;89.40;;;;;;5056076;28;20095;-69
2023/05/15 04:29:14;;;;;;;12.00;2.20;;;17.50;89.70;;;;;;5034224;28;20044;-69
2023/05/15 04:31:42;;;;;;;7.05;1.55;;;17.60;90.00;;;;;;5067160;28;20024;-70
2023/05/15 04:34:09;;;;;;;9.45;1.38;;;17.60;89.30;;;;;;5064513;28;20036;-69
2023/05/15 04:36:36;;;;;;;3.58;1.20;;;17.50;88.70;;;;;;5062485;28;20021;-69
2023/05/15 04:39:05;;;;;;;3.42;1.10;;;17.60;88.60;;;;;;5015435;28;20131;-70
2023/05/15 04:41:33;;;;;;;4.60;0.95;;;17.50;88.00;;;;;;5032500;28;20040;-69
2023/05/15 04:44:00;;;;;;;2.47;0.80;;;17.50;87.80;;;;;;5035325;28;20136;-70
2023/05/15 04:46:28;;;;;;;3.42;0.90;;;17.50;87.60;;;;;;5012089;28;20047;-68
2023/05/15 04:48:55;;;;;;;3.75;0.98;;;17.60;87.40;;;;;;5027613;28;20424;-68
2023/05/15 04:51:22;;;;;;;3.60;1.25;;;17.60;87.10;;;;;;5057868;28;20039;-69
2023/05/15 04:53:50;;;;;;;3.53;1.48;;;17.60;87.00;;;;;;5048843;28;20091;-69
2023/05/15 04:56:17;;;;;;;8.48;1.55;;;17.60;86.90;;;;;;5061407;28;20078;-69
2023/05/15 04:58:45;;;;;;;3.35;1.10;;;17.60;86.80;;;;;;5058993;28;20084;-69
2023/05/15 05:01:12;;;;;;;7.50;1.48;;;17.60;86.80;;;;;;5055342;28;20123;-67
2023/05/15 05:03:39;;;;;;;6.60;1.30;;;17.60;86.70;;;;;;5043252;28;20047;-68
2023/05/15 05:06:07;;;;;;;6.30;1.52;;;17.60;86.80;;;;;;5055204;28;20469;-68
2023/05/15 05:08:35;;;;;;;8.43;1.70;;;17.60;86.70;;;;;;5055254;28;20039;-68
2023/05/15 05:11:02;;;;;;;3.53;1.10;;;17.70;86.70;;;;;;5067919;28;20115;-68
2023/05/15 05:13:30;;;;;;;5.97;1.48;;;17.60;86.50;;;;;;5057464;28;20041;-69
2023/05/15 05:15:57;;;;;;;5.55;1.20;;;17.60;86.50;;;;;;5048594;28;20045;-66
2023/05/15 05:18:25;;;;;;;2.55;0.90;;;17.60;86.40;;;;;;5046572;28;20048;-67
2023/05/15 05:21:00;;;;;;;7.20;1.90;;;17.60;86.20;;;;;;5041726;28;20492;-67
2023/05/15 05:23:28;;;;;;;5.40;1.33;;;17.60;86.00;;;;;;5024943;28;20485;-69
2023/05/15 05:25:56;;;;;;;3.90;1.17;;;17.60;85.90;;;;;;5052083;28;20036;-69
2023/05/15 05:28:23;;;;;;;2.40;1.02;;;17.60;85.80;;;;;;5048792;28;20033;-69
2023/05/15 05:30:51;;;;;;;3.65;1.20;;;17.60;85.50;;;;;;5048463;28;20037;-69
2023/05/15 05:33:18;;;;;;;2.95;1.30;;;17.60;85.50;;;;;;5049035;28;20092;-68
2023/05/15 05:35:46;;;;;;;4.20;1.13;;;17.60;85.40;;;;;;5057968;28;20490;-69
2023/05/15 05:38:13;;;;;;;5.78;1.27;;;17.60;85.30;;;;;;5049568;28;20037;-67
2023/05/15 05:40:41;;;;;;;2.15;0.80;;;17.60;85.10;;;;;;5049594;28;20040;-67
2023/05/15 05:51:39;;;;;;;2.70;0.98;;;17.70;83.50;;;;;;5040000;28;20075;-69
2023/05/15 05:54:06;;;;;;;7.95;1.75;;;17.60;83.40;;;;;;5042385;28;20403;-72
2023/05/15 05:56:34;;;;;;;9.35;2.10;;;17.60;83.10;;;;;;5015054;28;20419;-71
2023/05/15 05:59:01;;;;;;;13.52;1.98;;;17.60;83.20;;;;;;5039075;28;20033;-71
2023/05/15 06:01:29;;;;;;;5.05;1.20;;;17.60;83.10;;;;;;5029233;28;20432;-72
2023/05/15 06:03:56;;;;;;;4.15;1.05;;;17.60;83.20;;;;;;5015708;28;20047;-72
2023/05/15 06:06:24;;;;;;;3.67;1.00;;;17.60;83.00;;;;;;5039925;28;20107;-72
2023/05/15 06:08:51;;;;;;;13.07;1.45;;;17.60;82.90;;;;;;5034684;28;20059;-72
2023/05/15 06:11:19;;;;;;;3.35;1.05;;;17.60;83.00;;;;;;5042012;28;20075;-72
2023/05/15 06:13:46;;;;;;;3.90;1.00;;;17.60;82.70;;;;;;5045318;28;20062;-71
2023/05/15 06:16:13;;;;;;;3.50;1.08;;;17.60;82.30;;;;;;5046140;28;20037;-71
2023/05/15 06:18:41;;;;;;;1.60;1.00;;;17.60;82.30;;;;;;5060248;28;20032;-71
2023/05/15 06:21:08;;;;;;;4.88;1.60;;;17.60;82.70;;;;;;5062727;28;20044;-71
2023/05/15 06:23:36;;;;;;;4.28;1.08;;;17.60;83.00;;;;;;5035718;28;20024;-71
2023/05/15 06:26:04;;;;;;;4.13;1.58;;;17.60;83.40;;;;;;5055821;28;20041;-71
2023/05/15 06:28:31;;;;;;;2.55;1.33;;;17.60;83.50;;;;;;5033960;28;20040;-70
2023/05/15 06:30:59;;;;;;;4.70;1.40;;;17.60;83.40;;;;;;5055503;28;20381;-69
2023/05/15 06:33:26;;;;;;;5.63;1.33;;;17.60;83.70;;;;;;5062523;28;20033;-70
2023/05/15 06:35:54;;;;;;;2.17;1.10;;;17.60;83.70;;;;;;5051249;28;20041;-73
2023/05/15 06:38:21;;;;;;;4.78;1.10;;;17.60;83.70;;;;;;5051993;28;20032;-72
2023/05/15 06:40:49;;;;;;;1.60;1.02;;;17.50;83.80;;;;;;5034740;28;20399;-72
2023/05/15 06:43:16;;;;;;;1.58;1.17;;;17.50;83.60;;;;;;5039720;28;20028;-71
2023/05/15 06:45:43;;;;;;;1.30;0.90;;;17.50;83.70;;;;;;5052977;28;20056;-72
2023/05/15 06:48:11;;;;;;;1.38;0.80;;;17.40;83.40;;;;;;5070674;28;20417;-72
2023/05/15 11:28:47;;;;;;;5.00;2.38;;;15.30;90.30;;;;;;5069026;28;20049;-72
2023/05/15 11:31:14;;;;;;;5.63;2.55;;;15.30;90.20;;;;;;5064525;28;20036;-72
2023/05/15 11:33:42;;;;;;;4.65;2.70;;;15.30;90.10;;;;;;5073127;28;20040;-71
2023/05/15 11:36:10;;;;;;;4.95;2.60;;;15.30;90.20;;;;;;5069611;28;20038;-72
2023/05/15 11:38:41;;;;;;;5.32;2.40;;;15.30;90.30;;;;;;5052339;28;20032;-74
2023/05/15 11:41:20;;;;;;;5.00;2.60;;;15.30;90.30;;;;;;5063789;28;20120;-71
2023/05/15 11:43:48;;;;;;;6.25;2.40;;;15.30;90.30;;;;;;5070478;28;20527;-70
2023/05/15 11:46:15;;;;;;;5.20;2.45;;;15.30;90.30;;;;;;5039438;28;20498;-71
2023/05/15 11:48:48;;;;;;;5.82;3.03;;;15.30;90.40;;;;;;5053897;28;20066;-72
2023/05/15 11:51:20;;;;;;;10.32;3.30;;;15.30;90.40;;;;;;5056436;28;20765;-72
2023/05/15 11:53:51;;;;;;;8.25;3.10;;;15.30;90.50;;;;;;5069488;28;20117;-73
2023/05/15 11:56:23;;;;;;;6.50;3.40;;;15.20;90.50;;;;;;5048736;28;20129;-72
2023/05/15 11:58:54;;;;;;;6.70;3.15;;;15.20;90.40;;;;;;5087599;28;20051;-73
2023/05/15 12:01:21;;;;;;;6.82;3.17;;;15.20;90.50;;;;;;5053252;28;20457;-71
2023/05/15 12:03:50;;;;;;;11.82;3.42;;;15.20;90.50;;;;;;5052439;28;20040;-73
2023/05/15 12:06:17;;;;;;;8.55;3.88;;;15.20;90.60;;;;;;5064827;28;20457;-72
2023/05/15 12:08:45;;;;;;;6.38;3.55;;;15.20;90.50;;;;;;5054767;28;20141;-72
2023/05/15 12:11:12;;;;;;;8.65;3.58;;;15.20;90.60;;;;;;5070149;28;20622;-73
2023/05/15 12:13:40;;;;;;;7.55;3.50;;;15.20;90.60;;;;;;5090161;28;20134;-72
2023/05/15 12:16:07;;;;;;;6.57;3.65;;;15.20;90.60;;;;;;5070578;28;20076;-72
2023/05/15 12:18:35;;;;;;;7.43;3.63;;;15.20;90.70;;;;;;5060294;28;20090;-72
2023/05/15 12:21:04;;;;;;;6.88;3.50;;;15.10;90.80;;;;;;5052238;28;20051;-72
2023/05/15 12:23:31;;;;;;;8.80;3.42;;;15.10;90.80;;;;;;5053835;28;20444;-72
2023/05/15 12:26:00;;;;;;;9.02;3.25;;;15.10;90.90;;;;;;5071053;28;20101;-73
2023/05/15 12:28:29;;;;;;;9.45;3.33;;;15.00;90.80;;;;;;5076570;28;20095;-73
2023/05/15 12:30:56;;;;;;;4.30;2.72;;;15.00;90.80;;;;;;5052459;28;20047;-73
2023/05/15 12:33:24;;;;;;;5.88;3.05;;;15.10;90.80;;;;;;5050145;28;20041;-72
2023/05/15 12:35:54;;;;;;;7.75;2.60;;;15.00;90.70;;;;;;5048193;28;20152;-73
2023/05/15 12:38:23;;;;;;;4.15;2.30;;;15.10;90.70;;;;;;5085851;28;20035;-71
2023/05/15 12:40:54;;;;;;;4.85;2.83;;;15.00;90.60;;;;;;5087653;28;20046;-72
2023/05/15 12:43:24;;;;;;;7.05;2.35;;;15.00;90.60;;;;;;5069615;28;20474;-73
2023/05/15 12:45:52;;;;;;;;;;;15.00;90.60;;;;;;5060524;28;20091;-71
2023/05/15 12:48:20;;;;;;;7.97;3.00;;;15.00;90.60;;;;;;5054152;28;19909;-71
2023/05/15 12:50:48;;;;;;;6.70;2.80;;;15.00;90.70;;;;;;5050962;28;20136;-71
2023/05/15 12:53:16;;;;;;;6.55;3.00;;;15.00;90.80;;;;;;5072783;28;20040;-71
2023/05/15 12:55:47;;;;;;;7.80;3.03;;;14.90;90.80;;;;;;5072772;28;20055;-71
2023/05/15 12:58:17;;;;;;;8.32;2.70;;;14.90;90.90;;;;;;5090937;28;20052;-71
2023/05/15 13:00:46;;;;;;;8.02;3.13;;;14.90;90.80;;;;;;5058419;28;20048;-71
2023/05/15 13:03:14;;;;;;;4.13;2.60;;;14.80;90.70;;;;;;5054734;28;20041;-72
2023/05/15 13:05:44;;;;;;;5.15;2.67;;;14.80;90.80;;;;;;5052865;28;20108;-71
2023/05/15 13:08:16;;;;;;;6.43;2.80;;;14.80;90.70;;;;;;5091808;28;20111;-72
2023/05/15 13:10:43;;;;;;;4.90;2.42;;;14.80;90.70;;;;;;5086441;28;20069;-71
2023/05/15 13:13:11;;;;;;;4.72;2.38;;;14.70;90.70;;;;;;5058851;28;20032;-71
2023/05/15 13:15:40;;;;;;;3.67;2.28;;;14.80;90.70;;;;;;5050628;28;20040;-71
2023/05/15 13:18:08;;;;;;;5.18;2.72;;;14.70;90.70;;;;;;5055568;28;20044;-71
2023/05/15 13:20:45;;;;;;;8.20;2.47;;;14.70;90.80;;;;;;5090798;28;20032;-73
2023/05/15 13:23:17;;;;;;;3.65;2.08;;;14.70;90.80;;;;;;5083914;28;20036;-71
2023/05/15 13:25:44;;;;;;;5.65;2.40;;;14.70;90.70;;;;;;5059459;28;20040;-71
2023/05/15 13:28:12;;;;;;;5.50;3.00;;;14.70;90.70;;;;;;5070133;28;20048;-71
2023/05/15 13:30:43;;;;;;;3.72;2.50;;;14.60;90.80;;;;;;5070639;28;20041;-71
2023/05/15 13:33:11;;;;;;;4.90;2.70;;;14.50;90.90;;;;;;5085478;28;20032;-71
2023/05/15 13:35:39;;;;;;;4.55;2.35;;;14.50;91.00;;;;;;5069175;28;20032;-71
2023/05/15 13:38:06;;;;;;;3.50;2.38;;;14.50;91.00;;;;;;5070240;28;20051;-72
2023/05/15 13:40:36;;;;;;;8.02;2.70;;;14.50;91.10;;;;;;5071172;28;20110;-70
2023/05/15 13:43:05;;;;;;;8.95;3.30;;;14.50;91.10;;;;;;5069943;28;20433;-71
2023/05/15 13:45:32;;;;;;;4.57;2.78;;;14.50;91.10;;;;;;5063656;28;20379;-71
2023/05/15 13:48:00;;;;;;;4.57;2.58;;;14.50;91.10;;;;;;5051178;28;20021;-72
2023/05/15 13:50:27;;;;;;;5.03;2.53;;;14.50;91.10;;;;;;5078155;28;20394;-72
2023/05/15 13:52:55;;;;;;;5.00;2.58;;;14.60;91.10;;;;;;5042158;28;20031;-72
2023/05/15 13:55:24;;;;;;;5.35;2.78;;;14.60;91.20;;;;;;5091646;28;20392;-71
2023/05/15 13:57:52;;;;;;;5.30;2.40;;;14.60;91.10;;;;;;5069268;28;20104;-72
2023/05/15 14:00:20;;;;;;;6.43;2.50;;;14.50;91.20;;;;;;5070181;28;20040;-72
2023/05/15 14:02:47;;;;;;;6.95;2.75;;;14.50;91.00;;;;;;5070330;28;20025;-72
2023/05/15 14:05:16;;;;;;;6.88;2.90;;;14.50;91.10;;;;;;5052107;28;20041;-72
2023/05/15 14:07:43;;;;;;;6.40;2.95;;;14.50;91.20;;;;;;5068154;28;20036;-72
2023/05/15 14:10:11;;;;;;;7.13;2.92;;;14.40;91.10;;;;;;5069852;28;20051;-72
2023/05/15 14:12:39;;;;;;;8.27;3.00;;;14.40;91.20;;;;;;5071943;28;20407;-72
2023/05/15 14:15:07;;;;;;;10.90;3.50;;;14.40;91.30;;;;;;5090429;28;20401;-72
2023/05/15 14:17:34;;;;;;;6.10;3.60;;;14.40;91.30;;;;;;5072764;28;20041;-72
2023/05/15 14:20:03;;;;;;;6.65;3.58;;;14.50;91.40;;;;;;5052558;28;20035;-72
2023/05/15 14:22:31;;;;;;;16.77;4.88;;;14.40;91.40;;;;;;5069198;28;20505;-72
2023/05/15 14:24:58;;;;;;;9.98;3.92;;;14.40;91.20;;;;;;5071193;28;20067;-72
2023/05/15 14:27:25;;;;;;;9.98;4.25;;;14.40;91.40;;;;;;5054221;28;20049;-72
2023/05/15 14:29:55;;;;;;;10.60;4.47;;;14.40;91.40;;;;;;5050881;28;20530;-72
2023/05/15 14:32:23;;;;;;;6.65;3.70;;;14.50;91.50;;;;;;5072992;28;20089;-72
2023/05/15 14:34:51;;;;;;;12.25;4.22;;;14.40;91.40;;;;;;5023140;28;20044;-72
2023/05/15 14:37:18;;;;;;;11.93;4.80;;;14.40;91.50;;;;;;5060388;28;20031;-72
2023/05/15 14:39:46;;;;;;;9.10;4.50;;;14.50;91.40;;;;;;5069683;28;20100;-73
2023/05/15 14:42:13;;;;;;;7.75;4.00;;;14.40;91.30;;;;;;5076670;28;20375;-72
2023/05/15 14:44:41;;;;;;;8.00;3.88;;;14.40;91.20;;;;;;5058094;28;20036;-72
2023/05/15 14:47:12;;;;;;;9.48;4.20;;;14.40;91.40;;;;;;5073614;28;20086;-72
2023/05/15 14:49:39;;;;;;;9.23;3.60;;;14.40;91.50;;;;;;5073531;28;20036;-72
2023/05/15 14:52:10;;;;;;;8.32;4.07;;;14.40;91.30;;;;;;5093178;28;20453;-72
2023/05/15 14:54:38;;;;;;;14.02;6.03;;;14.40;91.50;;;;;;5060833;28;20033;-72
2023/05/15 14:57:06;;;;;;;9.93;5.97;;;14.40;91.50;;;;;;5054763;28;20442;-72
2023/05/15 14:59:34;;;;;;;9.07;4.93;;;14.40;91.50;;;;;;5052969;28;20029;-71
2023/05/15 15:02:01;;;;;;;12.35;4.88;;;14.40;91.60;;;;;;5084676;28;20111;-71
2023/05/15 15:04:33;;;;;;;10.00;4.97;;;14.40;91.60;;;;;;5086975;28;20122;-72
2023/05/15 15:07:03;;;;;;;6.03;3.97;;;14.40;91.70;;;;;;5058548;28;20039;-72
2023/05/15 15:09:30;;;;;;;10.48;4.70;;;14.40;91.70;;;;;;5093089;28;20067;-72
2023/05/15 15:11:57;;;;;;;8.27;4.18;;;14.30;91.60;;;;;;5087788;28;20064;-71
2023/05/15 15:14:25;;;;;;;10.07;4.15;;;14.30;91.70;;;;;;5086944;28;20071;-71
2023/05/15 15:16:52;;;;;;;6.90;4.28;;;14.30;91.80;;;;;;5074414;28;20082;-72
2023/05/15 15:19:20;;;;;;;14.48;4.93;;;14.30;91.80;;;;;;5072830;28;20063;-72
2023/05/15 15:21:48;;;;;;;8.98;4.60;;;14.20;91.70;;;;;;5066212;28;20436;-72
2023/05/15 15:24:15;;;;;;;8.85;4.60;;;14.30;91.70;;;;;;5064670;28;20078;-72
2023/05/15 15:26:43;;;;;;;9.73;4.60;;;14.20;91.70;;;;;;5076954;28;20200;-72
2023/05/15 15:29:10;;;;;;;12.75;4.63;;;14.20;91.70;;;;;;5055493;28;20037;-72
2023/05/15 15:31:37;;;;;;;10.18;5.00;;;14.20;91.70;;;;;;5071915;28;20498;-72
2023/05/15 15:34:07;;;;;;;11.73;5.32;;;14.20;91.60;;;;;;5054806;28;20039;-72
2023/05/15 15:36:37;;;;;;;15.13;6.13;;;14.20;91.70;;;;;;5073723;28;20071;-71
2023/05/15 15:39:04;;;;;;;10.10;4.78;;;14.20;91.70;;;;;;5072803;28;20559;-71
2023/05/15 15:41:32;;;;;;;11.35;5.20;;;14.20;91.80;;;;;;5071908;28;20037;-72
2023/05/15 15:44:00;;;;;;;9.23;5.03;;;14.20;91.70;;;;;;5053472;28;20060;-72
2023/05/15 15:46:27;;;;;;;12.63;5.60;;;14.20;91.70;;;;;;5055467;28;20033;-72
2023/05/15 15:48:55;;;;;;;12.35;5.28;;;14.20;91.60;;;;;;5073084;28;20119;-72
2023/05/15 15:51:22;;;;;;;12.73;5.75;;;14.20;91.50;;;;;;5072172;28;20494;-71
2023/05/15 15:53:49;;;;;;;10.70;5.50;;;14.10;91.50;;;;;;5054596;28;20102;-72
2023/05/15 15:56:17;;;;;;;13.35;5.90;;;14.10;91.60;;;;;;5055590;28;20115;-71
2023/05/15 15:58:44;;;;;;;12.52;6.10;;;14.10;91.60;;;;;;5055181;28;20040;-72
2023/05/15 16:01:12;;;;;;;13.10;5.80;;;14.00;91.60;;;;;;5018578;28;20083;-72
2023/05/15 16:03:39;;;;;;;11.77;6.03;;;14.10;91.70;;;;;;5027056;28;20545;-72
2023/05/15 16:06:07;;;;;;;14.75;6.03;;;14.10;91.60;;;;;;5055399;28;20123;-72
2023/05/15 16:08:38;;;;;;;15.57;6.60;;;14.00;91.60;;;;;;5072032;28;20052;-72
2023/05/15 16:11:05;;;;;;;11.82;6.40;;;14.10;91.70;;;;;;5072175;28;20044;-72
2023/05/15 16:13:33;;;;;;;14.23;6.07;;;14.00;91.70;;;;;;5071669;28;20059;-71
2023/05/15 16:16:00;;;;;;;16.05;6.60;;;14.00;91.70;;;;;;5072988;28;20032;-72
2023/05/15 16:18:27;;;;;;;13.70;6.47;;;14.00;91.60;;;;;;5072676;28;20479;-73
2023/05/15 16:20:55;;;;;;;16.27;6.32;;;14.00;91.70;;;;;;5072018;28;20035;-72
2023/05/15 16:23:22;;;;;;;15.68;5.78;;;14.00;91.80;;;;;;5054372;28;20537;-72
2023/05/15 16:25:50;;;;;;;10.65;5.82;;;14.00;91.80;;;;;;5072599;28;20086;-72
2023/05/15 16:28:17;;;;;;;12.82;6.43;;;14.00;91.80;;;;;;5080637;28;20044;-72
2023/05/15 16:30:46;;;;;;;14.68;7.85;;;14.00;91.80;;;;;;5074615;28;20046;-72
2023/05/15 16:33:14;;;;;;;12.98;7.55;;;14.00;91.90;;;;;;5071865;28;20033;-72
2023/05/15 16:35:41;;;;;;;15.10;8.10;;;14.00;91.90;;;;;;5087682;28;20071;-72
2023/05/15 16:38:08;;;;;;;14.50;8.32;;;14.00;92.00;;;;;;5058232;28;20044;-72
2023/05/15 16:40:36;;;;;;;17.42;8.05;;;14.00;92.10;;;;;;5070262;28;20039;-72
2023/05/15 16:43:03;;;;;;;16.23;9.05;;;14.00;92.10;;;;;;5089521;28;20032;-71
2023/05/15 16:45:31;;;;;;;18.65;9.13;;;14.00;92.10;;;;;;5072507;28;20406;-71
2023/05/15 16:47:58;;;;;;;21.40;10.27;;;14.10;92.20;;;;;;5059912;28;20095;-72
2023/05/15 16:50:26;;;;;;;18.70;10.45;;;14.00;92.40;;;;;;5068822;28;20032;-72
2023/05/15 16:52:53;;;;;;;25.08;11.85;;;14.00;92.40;;;;;;5072174;28;20040;-71
2023/05/15 16:55:21;;;;;;;22.95;11.82;;;14.00;92.50;;;;;;5091019;28;20088;-72
2023/05/15 16:57:48;;;;;;;25.27;11.63;;;14.00;92.50;;;;;;5081020;28;20033;-72
2023/05/15 17:00:16;;;;;;;26.05;12.80;;;13.90;92.70;;;;;;5086870;28;20040;-72
2023/05/15 17:02:43;;;;;;;22.90;11.63;;;14.00;92.70;;;;;;5091263;28;20028;-72
2023/05/15 17:05:11;;;;;;;24.00;11.63;;;13.90;92.80;;;;;;5092170;28;20508;-72
2023/05/15 17:07:38;;;;;;;28.30;13.38;;;13.90;92.90;;;;;;5061372;28;20590;-72
2023/05/15 17:10:07;;;;;;;22.30;12.77;;;14.00;92.80;;;;;;5063539;28;20111;-72
2023/05/15 17:12:34;;;;;;;21.55;11.80;;;13.90;92.90;;;;;;5070577;28;20051;-72
2023/05/15 17:15:02;;;;;;;22.02;11.77;;;13.90;93.10;;;;;;5090717;28;20032;-72
2023/05/15 17:17:30;;;;;;;24.08;12.20;;;13.90;93.10;;;;;;5083979;28;20029;-72
2023/05/15 17:19:57;;;;;;;21.05;11.48;;;13.90;93.10;;;;;;5069457;28;20382;-73
2023/05/15 17:22:24;;;;;;;27.65;12.88;;;13.90;93.20;;;;;;5054163;28;20056;-72
2023/05/15 17:24:52;;;;;;;20.52;12.07;;;13.90;93.10;;;;;;5072282;28;20040;-73
2023/05/15 17:27:19;;;;;;;20.02;12.10;;;13.90;93.10;;;;;;5059389;28;20499;-72
2023/05/15 18:18:30;;;;;;;10.55;6.97;;;13.70;92.80;;;;;;5067182;28;20071;-73
2023/05/15 18:20:58;;;;;;;10.57;7.32;;;13.70;92.70;;;;;;5056805;28;20441;-74
2023/05/15 18:23:25;;;;;;;11.23;7.38;;;13.60;92.60;;;;;;5061501;28;20386;-73
2023/05/15 18:25:53;;;;;;;10.27;7.30;;;13.60;92.40;;;;;;5057849;28;20045;-73
2023/05/15 18:28:20;;;;;;;11.63;6.82;;;13.60;92.50;;;;;;5067052;28;20482;-73
2023/05/15 18:30:47;;;;;;;12.93;7.13;;;13.50;92.40;;;;;;5048836;28;20044;-73
2023/05/15 18:33:15;;;;;;;10.15;6.88;;;13.50;92.40;;;;;;5094400;28;20379;-73
2023/05/15 18:35:43;;;;;;;9.85;7.10;;;13.50;92.40;;;;;;5081679;28;20398;-73
2023/05/15 18:38:11;;;;;;;12.02;6.95;;;13.50;92.40;;;;;;5047818;28;20040;-73
2023/05/15 18:40:38;;;;;;;10.98;6.47;;;13.50;92.30;;;;;;5077660;28;20438;-73
2023/05/15 18:43:06;;;;;;;10.13;6.80;;;13.50;92.20;;;;;;5057290;28;20064;-73
2023/05/15 18:45:33;;;;;;;10.80;6.60;;;13.50;92.10;;;;;;5074541;28;20040;-73
2023/05/15 18:48:01;;;;;;;12.13;6.63;;;13.50;92.10;;;;;;5045387;28;20032;-74
2023/05/15 18:50:28;;;;;;;9.55;6.07;;;13.50;92.10;;;;;;5061662;28;20045;-74
2023/05/15 18:52:56;;;;;;;11.55;6.57;;;13.50;92.10;;;;;;5056930;28;20447;-74
2023/05/15 18:55:25;;;;;;;8.77;6.18;;;13.40;92.00;;;;;;5053128;28;20029;-73
2023/05/15 18:57:52;;;;;;;9.90;6.50;;;13.40;92.00;;;;;;5062542;28;20107;-73
2023/05/15 19:00:20;;;;;;;8.45;5.60;;;13.40;92.00;;;;;;5059163;28;20158;-73
2023/05/15 19:02:48;;;;;;;12.90;6.00;;;13.50;92.00;;;;;;5040204;28;20037;-73
2023/05/15 19:05:15;;;;;;;7.35;5.72;;;13.40;91.90;;;;;;5037418;28;20041;-73
2023/05/15 19:07:43;;;;;;;9.27;5.85;;;13.30;91.80;;;;;;5080910;28;20113;-73
2023/05/15 19:10:11;;;;;;;7.03;5.57;;;13.30;91.80;;;;;;5039538;28;20041;-73
2023/05/15 19:12:39;;;;;;;7.38;5.30;;;13.30;91.80;;;;;;5056404;28;20048;-73
2023/05/15 19:15:07;;;;;;;7.65;5.63;;;13.30;91.70;;;;;;5054594;28;20120;-74
2023/05/15 19:17:35;;;;;;;6.65;5.22;;;13.30;91.50;;;;;;5058445;28;20062;-73
2023/05/15 19:20:03;;;;;;;8.93;5.63;;;13.30;91.70;;;;;;5072103;28;20514;-73
2023/05/15 19:22:30;;;;;;;7.00;5.22;;;13.30;91.50;;;;;;5056106;28;20036;-72
2023/05/15 19:24:57;;;;;;;8.45;5.55;;;13.30;91.50;;;;;;5073840;28;20486;-72
2023/05/15 19:27:25;;;;;;;5.93;4.88;;;13.30;91.30;;;;;;5077790;28;20064;-72
2023/05/15 19:29:53;;;;;;;6.90;5.15;;;13.30;91.30;;;;;;5074140;28;20028;-72
2023/05/15 19:32:20;;;;;;;8.82;5.43;;;13.30;91.40;;;;;;5073926;28;20107;-72
2023/05/15 19:34:48;;;;;;;7.10;5.20;;;13.20;91.30;;;;;;5073217;28;20048;-72
2023/05/15 19:37:15;;;;;;;7.07;4.93;;;13.20;91.40;;;;;;5070571;28;20044;-72
2023/05/15 19:39:42;;;;;;;8.13;5.82;;;13.20;91.40;;;;;;5093553;28;20028;-71
2023/05/15 19:42:10;;;;;;;9.50;5.57;;;13.20;91.40;;;;;;5085467;28;20025;-72
2023/05/15 19:44:37;;;;;;;11.00;5.82;;;13.20;91.30;;;;;;5053398;28;20076;-71
2023/05/15 19:47:05;;;;;;;10.60;5.30;;;13.20;91.40;;;;;;5089281;28;20040;-71
2023/05/15 19:49:32;;;;;;;12.63;5.72;;;13.20;91.40;;;;;;5070926;28;20475;-72
2023/05/15 19:52:00;;;;;;;8.05;5.90;;;13.20;91.40;;;;;;5055445;28;20028;-72
2023/05/15 19:54:27;;;;;;;8.85;5.30;;;13.20;91.30;;;;;;5072697;28;20430;-72
2023/05/15 19:56:57;;;;;;;8.63;5.43;;;13.20;91.30;;;;;;5073964;28;20144;-72
2023/05/15 19:59:24;;;;;;;7.28;5.18;;;13.20;91.30;;;;;;5072675;28;20546;-69
2023/05/15 20:01:52;;;;;;;8.40;5.18;;;13.20;91.30;;;;;;5072380;28;20052;-72
2023/05/15 20:04:19;;;;;;;10.85;5.53;;;13.20;91.50;;;;;;5092015;28;20526;-72
2023/05/15 20:06:47;;;;;;;8.95;5.20;;;13.20;91.30;;;;;;5081833;28;20476;-72
2023/05/15 20:09:14;;;;;;;7.75;5.30;;;13.10;91.20;;;;;;5093355;28;20030;-71
2023/05/15 20:11:42;;;;;;;7.30;5.30;;;13.10;91.20;;;;;;5091241;28;20048;-72
2023/05/15 20:14:09;;;;;;;8.35;4.45;;;13.10;91.20;;;;;;5093271;28;20370;-71
2023/05/15 20:51:47;;;;;;;6.10;4.70;;;12.90;91.30;;;;;;5087291;28;20447;-71
2023/05/15 20:54:15;;;;;;;6.75;4.97;;;13.00;91.40;;;;;;5090151;28;20048;-72
2023/05/15 20:56:42;;;;;;;7.88;5.43;;;13.00;91.30;;;;;;5073593;28;20494;-72
2023/05/15 20:59:10;;;;;;;7.15;5.25;;;12.90;91.30;;;;;;5057016;28;20036;-71
2023/05/15 21:01:37;;;;;;;8.25;5.65;;;13.00;91.30;;;;;;5092199;28;20043;-72
2023/05/15 21:04:05;;;;;;;7.68;5.53;;;12.90;91.40;;;;;;5092075;28;20103;-71
2023/05/15 21:06:33;;;;;;;8.55;6.20;;;13.00;91.60;;;;;;5094281;28;20127;-72